Time;durP1;ratioP1;P1;durP2;ratioP2;P2;SDS_P1;SDS_P2;PMS_P1;PMS_P2;Temp;Humidity;BMP_temperature;BMP_pressure;BME280_temperature;BME280_humidity;BME280_pressure;Samples;Min_cycle;Max_cycle;Signal;HPM_P1;HPM_P2
2022/08/30 00:03:05;;;;;;;6.32;4.78;;;29.30;57.00;;;;;;5074995;28;20040;-73
2022/08/30 00:05:32;;;;;;;6.60;4.10;;;29.20;57.00;;;;;;5074887;28;20085;-73
2022/08/30 00:07:58;;;;;;;9.40;4.70;;;29.10;57.10;;;;;;5074783;28;20492;-73
2022/08/30 00:10:25;;;;;;;8.38;4.32;;;29.20;57.20;;;;;;5074750;28;20036;-73
2022/08/30 00:12:51;;;;;;;4.43;3.83;;;29.10;57.20;;;;;;5074454;28;20028;-73
2022/08/30 00:15:18;;;;;;;5.53;4.35;;;29.10;57.20;;;;;;5074427;28;20035;-73
2022/08/30 00:17:44;;;;;;;8.73;4.05;;;29.20;57.30;;;;;;5074550;28;20116;-73
2022/08/30 00:20:18;;;;;;;5.55;4.70;;;29.10;57.30;;;;;;5074501;28;20090;-73
2022/08/30 00:22:44;;;;;;;5.70;3.75;;;29.20;57.30;;;;;;5073032;28;20142;-73
2022/08/30 00:25:11;;;;;;;7.03;3.75;;;29.10;57.30;;;;;;5074201;28;20090;-73
2022/08/30 00:27:38;;;;;;;7.53;3.75;;;29.20;57.30;;;;;;5074296;28;20032;-73
2022/08/30 00:30:05;;;;;;;6.65;3.75;;;29.20;57.20;;;;;;5074386;28;20115;-73
2022/08/30 00:32:31;;;;;;;8.65;3.88;;;29.20;57.30;;;;;;5074359;28;20369;-73
2022/08/30 00:34:57;;;;;;;4.78;3.60;;;29.10;57.30;;;;;;5074216;28;20037;-73
2022/08/30 00:37:23;;;;;;;4.85;3.38;;;29.10;57.30;;;;;;5074252;28;20405;-73
2022/08/30 00:39:49;;;;;;;5.10;3.13;;;29.10;57.30;;;;;;5074119;28;20468;-73
2022/08/30 00:42:18;;;;;;;5.43;3.13;;;29.10;57.40;;;;;;5074102;28;20036;-73
2022/08/30 00:44:45;;;;;;;4.47;3.20;;;29.00;57.50;;;;;;5073842;28;20036;-73
2022/08/30 00:47:11;;;;;;;4.20;2.97;;;29.00;57.60;;;;;;5072666;28;20029;-73
2022/08/30 00:49:40;;;;;;;6.55;3.33;;;29.00;57.60;;;;;;5073974;28;20037;-73
2022/08/30 00:52:08;;;;;;;3.42;3.00;;;28.90;57.20;;;;;;5074026;28;20111;-73
2022/08/30 00:54:36;;;;;;;7.70;3.45;;;28.90;57.20;;;;;;5073841;28;20451;-73
2022/08/30 00:57:03;;;;;;;3.50;3.00;;;28.90;57.20;;;;;;5073710;28;20361;-73
2022/08/30 00:59:30;;;;;;;5.25;3.60;;;28.80;57.20;;;;;;5074070;28;20408;-73
2022/08/30 01:01:56;;;;;;;5.95;3.60;;;28.90;57.30;;;;;;5073673;28;20060;-73
2022/08/30 01:04:24;;;;;;;5.45;2.97;;;28.90;57.30;;;;;;5073830;28;20040;-73
2022/08/30 01:06:52;;;;;;;6.63;3.70;;;28.90;57.30;;;;;;5055502;28;20444;-73
2022/08/30 01:09:18;;;;;;;4.00;3.38;;;28.80;57.40;;;;;;5073757;28;20059;-73
2022/08/30 01:11:46;;;;;;;5.43;3.72;;;29.00;58.00;;;;;;5073587;28;20466;-73
2022/08/30 01:14:12;;;;;;;5.93;3.30;;;28.80;57.40;;;;;;5073613;28;20158;-73
2022/08/30 01:16:42;;;;;;;4.15;3.38;;;28.80;57.40;;;;;;5073532;28;20037;-73
2022/08/30 01:19:34;;;;;;;6.95;3.10;;;29.00;58.00;;;;;;5088193;28;20556;-72
2022/08/30 01:22:21;;;;;;;4.03;3.60;;;28.90;57.50;;;;;;5073300;28;20581;-73
2022/08/30 01:24:49;;;;;;;5.93;3.50;;;28.80;57.60;;;;;;5073637;28;20037;-73
2022/08/30 01:27:16;;;;;;;7.15;3.80;;;28.90;57.60;;;;;;5073123;28;20056;-72
2022/08/30 01:29:43;;;;;;;5.53;4.38;;;28.90;57.60;;;;;;5073260;28;20375;-73
2022/08/30 01:32:25;;;;;;;4.43;3.67;;;29.00;58.10;;;;;;5073150;28;20529;-73
2022/08/30 01:34:51;;;;;;;7.05;4.03;;;28.90;57.40;;;;;;5073127;28;20457;-73
2022/08/30 01:37:24;;;;;;;4.68;3.72;;;29.00;57.80;;;;;;5072657;28;20399;-73
2022/08/30 01:39:50;;;;;;;6.78;4.50;;;29.00;57.80;;;;;;5072900;28;20037;-73
2022/08/30 01:42:17;;;;;;;5.70;4.30;;;29.00;57.60;;;;;;5072662;28;20568;-73
2022/08/30 01:44:44;;;;;;;7.28;4.07;;;29.00;57.60;;;;;;5072693;28;20032;-73
2022/08/30 01:47:11;;;;;;;6.47;4.68;;;29.00;57.60;;;;;;5072611;28;20032;-73
2022/08/30 01:49:37;;;;;;;7.97;4.82;;;28.80;57.20;;;;;;5072866;28;20389;-73
2022/08/30 01:52:04;;;;;;;9.45;5.18;;;28.90;57.20;;;;;;5072954;28;20036;-73
2022/08/30 01:54:32;;;;;;;8.45;5.30;;;28.70;57.30;;;;;;5072825;28;20072;-73
2022/08/30 01:56:58;;;;;;;6.40;5.05;;;28.80;57.40;;;;;;5071791;28;20029;-73
2022/08/30 01:59:24;;;;;;;10.10;5.47;;;28.80;57.40;;;;;;5072752;28;20373;-73
2022/08/30 02:01:50;;;;;;;7.35;5.47;;;28.80;57.50;;;;;;5072643;28;20044;-73
2022/08/30 02:04:16;;;;;;;8.40;5.35;;;28.70;57.60;;;;;;5072513;28;20712;-73
2022/08/30 02:06:43;;;;;;;8.30;5.72;;;28.70;57.60;;;;;;5071245;28;20033;-73
2022/08/30 02:09:11;;;;;;;6.20;4.80;;;28.80;57.80;;;;;;5071223;28;20037;-73
2022/08/30 02:11:37;;;;;;;7.60;4.80;;;28.70;57.80;;;;;;5071298;28;20051;-73
2022/08/30 02:14:05;;;;;;;10.02;5.95;;;28.80;57.90;;;;;;5072385;28;20031;-73
2022/08/30 02:16:31;;;;;;;10.10;5.03;;;28.80;57.90;;;;;;5072277;28;20028;-73
2022/08/30 02:18:57;;;;;;;6.35;4.78;;;28.70;57.90;;;;;;5072392;28;20032;-73
2022/08/30 02:21:24;;;;;;;8.23;5.45;;;28.60;57.90;;;;;;5070962;28;20098;-73
2022/08/30 02:23:51;;;;;;;7.63;5.68;;;28.60;58.00;;;;;;5070967;28;20059;-73
2022/08/30 02:26:18;;;;;;;13.25;6.88;;;28.60;58.00;;;;;;5072324;28;20060;-73
2022/08/30 02:28:45;;;;;;;9.50;7.25;;;28.80;58.00;;;;;;5071043;28;20028;-73
2022/08/30 02:31:11;;;;;;;10.70;7.43;;;28.80;58.00;;;;;;5072097;28;20060;-73
2022/08/30 02:33:37;;;;;;;10.27;6.97;;;28.80;57.90;;;;;;5072295;28;20041;-73
2022/08/30 02:36:05;;;;;;;12.18;8.48;;;28.80;57.90;;;;;;5072055;28;20028;-73
2022/08/30 02:38:31;;;;;;;13.13;7.45;;;28.80;57.90;;;;;;5071918;28;20385;-73
2022/08/30 02:40:57;;;;;;;10.02;8.20;;;28.90;57.90;;;;;;5071940;28;20089;-73
2022/08/30 02:43:25;;;;;;;11.00;7.65;;;28.70;57.80;;;;;;5072080;28;20024;-73
2022/08/30 02:45:52;;;;;;;12.23;8.50;;;28.70;57.80;;;;;;5071744;28;20393;-73
2022/08/30 02:48:18;;;;;;;9.70;7.35;;;28.90;57.80;;;;;;5072051;28;20028;-73
2022/08/30 02:50:47;;;;;;;10.27;8.07;;;28.80;57.80;;;;;;5072078;28;20040;-73
2022/08/30 02:53:13;;;;;;;11.25;7.95;;;28.90;57.80;;;;;;5072063;28;20141;-73
2022/08/30 02:55:39;;;;;;;12.77;8.68;;;28.80;57.80;;;;;;5071972;28;20085;-73
2022/08/30 02:58:06;;;;;;;10.60;8.30;;;28.70;57.90;;;;;;5071838;28;20155;-73
2022/08/30 03:00:33;;;;;;;15.07;7.93;;;28.80;57.90;;;;;;5071951;28;20082;-73
2022/08/30 03:03:02;;;;;;;10.82;7.82;;;28.70;58.00;;;;;;5071869;28;20126;-73
2022/08/30 03:05:29;;;;;;;11.52;9.02;;;28.70;58.00;;;;;;5071802;28;20389;-73
2022/08/30 03:07:55;;;;;;;12.10;8.60;;;28.70;58.00;;;;;;5073845;28;20060;-73
2022/08/30 03:10:21;;;;;;;16.55;9.32;;;28.70;58.10;;;;;;5076069;28;20063;-73
2022/08/30 03:12:47;;;;;;;13.77;8.63;;;28.70;58.10;;;;;;5075746;28;20389;-73
2022/08/30 03:15:15;;;;;;;14.07;8.82;;;28.60;58.10;;;;;;5075963;28;20036;-73
2022/08/30 03:17:41;;;;;;;13.32;9.38;;;28.60;58.30;;;;;;5075867;28;20085;-73
2022/08/30 03:20:08;;;;;;;14.90;9.02;;;28.60;58.30;;;;;;5090561;28;20405;-73
2022/08/30 03:22:34;;;;;;;13.25;8.30;;;28.60;58.40;;;;;;5075707;28;20028;-73
2022/08/30 03:25:00;;;;;;;13.55;9.40;;;28.70;58.20;;;;;;5075723;28;20078;-73
2022/08/30 03:27:27;;;;;;;18.95;9.32;;;28.70;58.20;;;;;;5075399;28;20698;-73
2022/08/30 03:29:54;;;;;;;13.43;7.97;;;28.50;58.30;;;;;;5075276;28;20045;-73
2022/08/30 03:32:20;;;;;;;15.05;8.95;;;28.60;58.30;;;;;;5074156;28;20054;-73
2022/08/30 03:34:47;;;;;;;11.73;8.25;;;28.70;58.30;;;;;;5075211;28;20473;-73
2022/08/30 03:37:13;;;;;;;13.75;9.27;;;28.70;58.20;;;;;;5075085;28;20043;-73
2022/08/30 03:39:39;;;;;;;13.32;9.32;;;28.70;58.20;;;;;;5075423;28;20090;-73
2022/08/30 03:42:06;;;;;;;13.95;9.00;;;28.70;58.30;;;;;;5075460;28;20473;-73
2022/08/30 03:44:32;;;;;;;13.15;9.95;;;28.70;58.30;;;;;;5075279;28;20504;-73
2022/08/30 03:46:58;;;;;;;15.00;8.88;;;28.60;58.20;;;;;;5075228;28;20036;-73
2022/08/30 03:49:24;;;;;;;14.38;8.93;;;28.70;58.20;;;;;;5074956;28;20024;-73
2022/08/30 03:51:50;;;;;;;15.70;9.00;;;28.70;58.30;;;;;;5074949;28;20112;-73
2022/08/30 03:54:17;;;;;;;12.00;9.02;;;28.70;58.20;;;;;;5074842;28;20064;-73
2022/08/30 03:56:43;;;;;;;11.40;8.88;;;28.60;58.20;;;;;;5074531;28;20036;-73
2022/08/30 03:59:09;;;;;;;14.45;8.68;;;28.70;58.10;;;;;;5074672;28;20373;-73
2022/08/30 04:01:35;;;;;;;12.65;8.07;;;28.70;58.20;;;;;;5074882;28;20117;-73
2022/08/30 04:04:01;;;;;;;14.27;9.15;;;28.80;58.10;;;;;;5074835;28;20516;-73
2022/08/30 04:06:27;;;;;;;10.88;8.45;;;28.80;58.00;;;;;;5074880;28;20437;-73
2022/08/30 04:08:53;;;;;;;14.95;9.38;;;28.80;57.80;;;;;;5074657;28;20024;-73
2022/08/30 04:11:20;;;;;;;20.83;9.27;;;28.70;57.70;;;;;;5074747;28;20033;-73
2022/08/30 04:13:48;;;;;;;17.63;9.27;;;28.80;57.60;;;;;;5074635;28;20104;-73
2022/08/30 04:16:14;;;;;;;17.35;9.52;;;28.70;57.60;;;;;;5074832;28;20036;-73
2022/08/30 04:18:40;;;;;;;14.95;9.25;;;28.80;57.60;;;;;;5073561;28;20455;-73
2022/08/30 04:21:06;;;;;;;13.00;8.88;;;28.80;57.70;;;;;;5073458;28;20040;-73
2022/08/30 04:23:32;;;;;;;17.42;9.60;;;28.60;57.90;;;;;;5074381;28;20477;-72
2022/08/30 04:25:58;;;;;;;14.15;9.10;;;28.80;57.90;;;;;;5074512;28;20024;-73
2022/08/30 04:28:24;;;;;;;12.50;8.80;;;28.70;57.90;;;;;;5074336;28;20109;-73
2022/08/30 04:30:50;;;;;;;12.60;8.93;;;28.60;57.90;;;;;;5073185;28;20032;-73
2022/08/30 04:33:17;;;;;;;12.63;9.20;;;28.80;57.80;;;;;;5074333;28;20082;-73
2022/08/30 04:35:46;;;;;;;15.45;9.35;;;28.80;57.90;;;;;;5074355;28;20033;-73
2022/08/30 04:38:13;;;;;;;16.55;9.50;;;28.70;57.90;;;;;;5074125;28;20063;-73
2022/08/30 04:40:44;;;;;;;18.90;9.82;;;28.80;58.00;;;;;;5074168;28;20561;-73
2022/08/30 04:43:11;;;;;;;19.15;8.90;;;28.80;58.00;;;;;;5074215;28;20452;-72
2022/08/30 04:45:38;;;;;;;9.88;7.78;;;28.70;58.00;;;;;;5073976;28;20040;-73
2022/08/30 04:48:05;;;;;;;11.02;8.35;;;28.80;57.90;;;;;;5074071;28;20060;-73
2022/08/30 04:50:31;;;;;;;13.75;9.40;;;28.70;57.90;;;;;;5074024;28;20033;-73
2022/08/30 04:52:58;;;;;;;16.80;9.60;;;28.70;57.90;;;;;;5072590;28;20454;-73
2022/08/30 04:55:24;;;;;;;15.75;9.30;;;28.70;57.90;;;;;;5073924;28;20508;-72
2022/08/30 04:57:51;;;;;;;18.50;9.50;;;28.90;57.90;;;;;;5073818;28;20055;-73
2022/08/30 05:00:21;;;;;;;18.48;9.68;;;28.80;57.80;;;;;;5073993;28;20028;-73
2022/08/30 05:02:47;;;;;;;16.30;9.05;;;28.70;57.80;;;;;;5073531;28;20117;-72
2022/08/30 05:07:59;;;;;;;18.70;9.00;;;28.70;57.90;;;;;;5073536;28;20465;-73
2022/08/30 05:10:26;;;;;;;13.43;8.82;;;28.70;57.80;;;;;;5073751;28;20036;-73
2022/08/30 05:12:52;;;;;;;11.82;8.48;;;28.70;57.80;;;;;;5073411;28;20111;-73
2022/08/30 05:15:21;;;;;;;15.07;8.32;;;28.70;57.80;;;;;;5072370;28;20076;-73
2022/08/30 05:17:48;;;;;;;13.35;8.45;;;28.70;57.90;;;;;;5073429;28;20031;-73
2022/08/30 05:20:15;;;;;;;15.73;8.52;;;28.80;57.80;;;;;;5072488;28;20040;-72
2022/08/30 05:22:48;;;;;;;12.93;8.40;;;28.80;57.80;;;;;;5073358;28;20040;-73
2022/08/30 05:25:20;;;;;;;20.30;8.85;;;28.70;57.70;;;;;;5073382;28;20115;-73
2022/08/30 05:27:46;;;;;;;13.73;8.50;;;28.80;57.60;;;;;;5073080;28;20499;-73
2022/08/30 05:30:14;;;;;;;16.52;9.00;;;28.70;57.70;;;;;;5072248;28;20374;-73
2022/08/30 05:32:41;;;;;;;13.13;8.82;;;28.70;57.70;;;;;;5071402;28;20035;-73
2022/08/30 05:35:09;;;;;;;16.27;8.48;;;28.70;57.70;;;;;;5071849;28;20136;-73
2022/08/30 05:37:36;;;;;;;13.75;8.70;;;28.70;57.70;;;;;;5073046;28;20471;-73
2022/08/30 05:40:05;;;;;;;10.00;8.07;;;28.80;57.60;;;;;;5073051;28;20467;-73
2022/08/30 05:42:35;;;;;;;16.48;8.75;;;28.70;57.60;;;;;;5072940;28;20040;-73
2022/08/30 05:45:02;;;;;;;13.38;9.10;;;28.90;57.60;;;;;;5072970;28;20036;-73
2022/08/30 05:47:28;;;;;;;13.68;8.82;;;28.80;57.60;;;;;;5073027;28;20032;-73
2022/08/30 05:49:54;;;;;;;10.63;6.97;;;28.90;57.60;;;;;;5072847;28;20043;-73
2022/08/30 05:52:20;;;;;;;13.85;8.57;;;28.80;57.60;;;;;;5072794;28;20054;-73
2022/08/30 05:54:53;;;;;;;12.23;8.15;;;28.80;57.60;;;;;;5072748;28;20480;-73
2022/08/30 05:57:20;;;;;;;9.57;7.05;;;28.80;57.50;;;;;;5072773;28;20470;-73
2022/08/30 05:59:46;;;;;;;12.27;7.63;;;28.90;57.50;;;;;;5072496;28;20024;-72
2022/08/30 06:02:12;;;;;;;9.68;6.10;;;28.90;57.40;;;;;;5072475;28;20044;-73
2022/08/30 06:04:38;;;;;;;9.05;7.32;;;29.00;57.90;;;;;;5072460;28;20040;-73
2022/08/30 06:07:05;;;;;;;10.80;7.38;;;28.90;57.30;;;;;;5072646;28;20504;-72
2022/08/30 06:09:31;;;;;;;10.23;6.60;;;29.10;57.80;;;;;;5072380;28;20036;-73
2022/08/30 06:11:57;;;;;;;8.50;6.47;;;29.00;57.80;;;;;;5072331;28;20060;-73
2022/08/30 06:14:24;;;;;;;11.93;8.43;;;28.90;57.30;;;;;;5072661;28;20070;-73
2022/08/30 06:16:50;;;;;;;10.95;7.95;;;28.90;57.30;;;;;;5072368;28;20037;-73
2022/08/30 06:19:17;;;;;;;10.80;7.72;;;29.00;57.80;;;;;;5072054;28;20028;-73
2022/08/30 06:21:47;;;;;;;12.00;7.13;;;28.80;57.40;;;;;;5072310;28;20049;-73
2022/08/30 06:24:13;;;;;;;8.65;6.88;;;28.80;57.40;;;;;;5072442;28;20500;-73
2022/08/30 06:26:42;;;;;;;10.93;7.07;;;28.80;57.40;;;;;;5072201;28;20134;-72
2022/08/30 06:29:11;;;;;;;11.80;6.95;;;28.80;57.30;;;;;;5072131;28;20036;-73
2022/08/30 06:31:37;;;;;;;12.18;7.70;;;28.70;57.30;;;;;;5072157;28;20032;-73
2022/08/30 06:34:04;;;;;;;13.02;7.78;;;28.80;57.30;;;;;;5072102;28;20120;-73
2022/08/30 06:36:31;;;;;;;10.00;6.88;;;28.80;57.30;;;;;;5072264;28;20068;-73
2022/08/30 06:38:58;;;;;;;12.55;6.93;;;28.80;57.30;;;;;;5072315;28;20060;-73
2022/08/30 06:41:29;;;;;;;9.48;6.43;;;28.90;57.40;;;;;;5072156;28;20041;-72
2022/08/30 06:43:56;;;;;;;10.07;7.10;;;28.80;57.30;;;;;;5071982;28;20036;-73
2022/08/30 06:46:26;;;;;;;9.02;6.88;;;29.00;57.80;;;;;;5071972;28;20469;-73
2022/08/30 06:48:54;;;;;;;10.45;6.93;;;28.90;57.30;;;;;;5071824;28;20461;-73
2022/08/30 06:51:29;;;;;;;11.60;6.88;;;28.90;57.30;;;;;;5071973;28;20366;-72
2022/08/30 06:53:55;;;;;;;7.03;5.45;;;28.80;57.30;;;;;;5071856;28;20024;-73
2022/08/30 06:56:22;;;;;;;11.30;6.78;;;28.90;57.30;;;;;;5072046;28;20056;-73
2022/08/30 06:58:49;;;;;;;9.30;6.22;;;29.00;57.80;;;;;;5070552;28;20067;-73
2022/08/30 07:01:19;;;;;;;8.90;6.97;;;29.10;57.70;;;;;;5071689;28;20041;-73
2022/08/30 07:03:46;;;;;;;9.30;7.22;;;28.90;57.20;;;;;;5071671;28;20047;-73
2022/08/30 07:06:13;;;;;;;9.00;6.85;;;29.10;57.60;;;;;;5071978;28;20032;-73
2022/08/30 07:08:40;;;;;;;12.00;6.95;;;28.90;57.20;;;;;;5071603;28;20032;-73
2022/08/30 07:11:07;;;;;;;13.07;7.18;;;29.00;57.70;;;;;;5071456;28;20453;-73
2022/08/30 07:13:34;;;;;;;10.55;7.00;;;28.90;57.10;;;;;;5071332;28;20029;-73
2022/08/30 07:16:00;;;;;;;10.52;6.90;;;29.00;57.70;;;;;;5070499;28;20461;-73
2022/08/30 07:21:14;;;;;;;9.07;6.75;;;28.90;57.20;;;;;;5071232;28;20520;-73
2022/08/30 07:23:41;;;;;;;12.88;6.60;;;28.80;57.20;;;;;;5071655;28;20064;-73
2022/08/30 07:26:09;;;;;;;7.85;6.47;;;29.10;57.70;;;;;;5071607;28;20024;-73
2022/08/30 07:28:37;;;;;;;9.95;7.25;;;28.90;57.10;;;;;;5071843;28;20041;-73
2022/08/30 07:31:04;;;;;;;13.35;5.28;;;28.90;57.20;;;;;;5071433;28;20119;-73
2022/08/30 07:33:31;;;;;;;8.43;6.40;;;28.90;57.10;;;;;;5071631;28;20028;-73
2022/08/30 07:35:58;;;;;;;8.18;6.60;;;28.90;57.10;;;;;;5070542;28;20032;-73
2022/08/30 07:38:25;;;;;;;7.60;5.57;;;28.90;57.20;;;;;;5071445;28;20040;-73
2022/08/30 07:40:51;;;;;;;12.02;6.90;;;28.90;57.20;;;;;;5071133;28;20033;-73
2022/08/30 07:43:17;;;;;;;9.02;6.72;;;28.90;57.20;;;;;;5071671;28;20050;-73
2022/08/30 07:45:43;;;;;;;11.43;7.07;;;28.90;57.20;;;;;;5071409;28;20529;-73
2022/08/30 07:48:11;;;;;;;9.50;6.78;;;28.80;57.00;;;;;;5071750;28;20024;-73
2022/08/30 07:50:42;;;;;;;7.35;5.90;;;28.90;57.20;;;;;;5071227;28;20071;-73
2022/08/30 07:53:08;;;;;;;8.70;6.70;;;29.00;57.80;;;;;;5071446;28;20084;-72
2022/08/30 07:55:34;;;;;;;8.02;5.95;;;28.90;57.20;;;;;;5073049;28;20044;-73
2022/08/30 07:58:00;;;;;;;11.38;6.78;;;28.90;57.20;;;;;;5073632;28;20484;-73
2022/08/30 08:00:26;;;;;;;8.43;5.38;;;29.00;57.80;;;;;;5074843;28;20037;-72
2022/08/30 08:02:52;;;;;;;10.40;5.65;;;28.90;57.20;;;;;;5074709;28;20036;-73
2022/08/30 08:05:18;;;;;;;8.32;6.18;;;29.00;57.70;;;;;;5074983;28;20076;-73
2022/08/30 08:07:45;;;;;;;6.85;5.00;;;29.00;57.70;;;;;;5074691;28;20108;-73
2022/08/30 08:10:12;;;;;;;11.68;6.78;;;29.00;57.70;;;;;;5073377;28;20068;-73
2022/08/30 08:12:39;;;;;;;6.85;5.60;;;29.00;57.70;;;;;;5074669;28;20028;-73
2022/08/30 08:15:06;;;;;;;9.35;6.63;;;29.10;57.60;;;;;;5073336;28;20485;-72
2022/08/30 08:17:32;;;;;;;8.88;5.35;;;29.20;57.60;;;;;;5074508;28;20041;-73
2022/08/30 08:19:58;;;;;;;7.28;5.80;;;29.00;57.60;;;;;;5074633;28;20037;-73
2022/08/30 08:22:24;;;;;;;12.65;6.47;;;29.00;57.60;;;;;;5089328;28;20051;-73
2022/08/30 08:24:50;;;;;;;9.88;5.95;;;29.00;57.60;;;;;;5074259;28;20397;-73
2022/08/30 08:27:16;;;;;;;7.25;5.95;;;29.00;57.60;;;;;;5074564;28;20024;-73
2022/08/30 08:29:43;;;;;;;7.63;6.00;;;28.90;57.10;;;;;;5073105;28;20064;-73
2022/08/30 08:32:09;;;;;;;7.65;5.38;;;28.80;57.10;;;;;;5074633;28;20035;-73
2022/08/30 08:34:36;;;;;;;8.05;6.25;;;28.90;57.10;;;;;;5074535;28;20116;-73
2022/08/30 08:37:02;;;;;;;8.32;5.47;;;28.90;57.10;;;;;;5074906;28;20063;-73
2022/08/30 08:39:28;;;;;;;8.65;5.00;;;28.80;57.10;;;;;;5074167;28;20064;-73
2022/08/30 08:42:17;;;;;;;10.60;6.45;;;28.90;57.10;;;;;;5074281;28;20058;-73
2022/08/30 08:44:53;;;;;;;7.80;5.28;;;28.90;57.20;;;;;;5074024;28;20453;-73
2022/08/30 08:47:36;;;;;;;7.57;5.57;;;28.90;57.20;;;;;;5073010;28;20035;-73
2022/08/30 08:50:06;;;;;;;12.82;6.00;;;28.90;57.20;;;;;;5073933;28;20402;-73
2022/08/30 08:55:41;;;;;;;8.88;6.07;;;28.90;57.20;;;;;;5073745;28;20101;-73
2022/08/30 08:58:14;;;;;;;;;;;28.80;57.10;;;;;;5073097;28;20127;-73
2022/08/30 09:00:40;;;;;;;6.95;4.63;;;28.90;57.20;;;;;;5072427;28;19931;-72
2022/08/30 09:03:12;;;;;;;7.45;5.75;;;29.00;57.80;;;;;;5073749;28;20075;-73
2022/08/30 09:05:39;;;;;;;6.57;4.83;;;29.00;57.70;;;;;;5073572;28;20040;-72
2022/08/30 09:08:10;;;;;;;9.90;5.57;;;29.00;57.70;;;;;;5073613;28;20028;-73
2022/08/30 09:10:38;;;;;;;8.63;5.43;;;29.00;57.50;;;;;;5073748;28;20048;-73
2022/08/30 09:13:04;;;;;;;8.70;4.95;;;29.00;57.70;;;;;;5073593;28;20028;-73
2022/08/30 09:15:33;;;;;;;7.65;5.00;;;28.90;57.10;;;;;;5073519;28;20052;-73
2022/08/30 09:18:05;;;;;;;7.60;5.13;;;29.00;57.70;;;;;;5073494;28;20035;-73
2022/08/30 09:20:42;;;;;;;;;;;28.90;56.90;;;;;;5073599;28;20290;-73
2022/08/30 09:23:28;;;;;;;6.70;4.10;;;29.00;57.60;;;;;;5072124;28;19913;-73
2022/08/30 09:25:58;;;;;;;6.63;5.05;;;29.00;57.60;;;;;;5072127;28;20036;-73
2022/08/30 09:28:27;;;;;;;6.22;4.63;;;29.00;57.60;;;;;;5073363;28;20066;-73
2022/08/30 09:31:23;;;;;;;7.03;4.38;;;28.90;57.10;;;;;;5073322;28;20025;-73
2022/08/30 09:34:08;;;;;;;7.35;4.10;;;29.10;57.60;;;;;;5050688;28;20064;-73
2022/08/30 09:36:51;;;;;;;5.95;4.68;;;29.00;57.60;;;;;;5050899;28;20077;-73
2022/08/30 09:39:17;;;;;;;10.35;4.57;;;29.00;57.60;;;;;;5050817;28;20045;-73
2022/08/30 09:41:47;;;;;;;6.85;4.28;;;28.90;57.10;;;;;;5050550;28;20040;-72
2022/08/30 09:44:22;;;;;;;4.93;3.55;;;28.80;57.10;;;;;;5050670;28;20517;-73
2022/08/30 09:46:55;;;;;;;5.20;4.30;;;28.90;57.10;;;;;;5050673;28;20509;-73
2022/08/30 09:49:35;;;;;;;5.78;4.80;;;28.80;57.20;;;;;;5050738;28;20041;-73
2022/08/30 09:52:22;;;;;;;4.80;4.07;;;28.90;57.20;;;;;;5050214;28;20128;-73
2022/08/30 09:55:06;;;;;;;7.07;4.90;;;28.80;57.20;;;;;;5050481;28;20075;-73
2022/08/30 09:57:51;;;;;;;6.35;4.65;;;28.90;57.20;;;;;;5050470;28;20163;-73
2022/08/30 10:00:22;;;;;;;6.10;4.13;;;29.00;57.70;;;;;;5050113;28;20029;-73
2022/08/30 10:03:32;;;;;;;5.95;4.32;;;29.00;57.70;;;;;;5050079;28;20085;-73
2022/08/30 10:06:17;;;;;;;6.55;4.18;;;29.00;57.70;;;;;;5033594;28;20076;-73
2022/08/30 10:08:51;;;;;;;5.55;4.10;;;29.00;57.70;;;;;;5050107;28;20169;-73
2022/08/30 10:11:40;;;;;;;7.97;4.75;;;29.00;57.70;;;;;;5067820;28;20044;-73
2022/08/30 10:14:18;;;;;;;7.45;4.85;;;29.00;57.70;;;;;;5071194;28;20037;-73
2022/08/30 10:16:52;;;;;;;6.07;4.13;;;29.00;57.70;;;;;;5071944;28;20032;-73
2022/08/30 10:19:35;;;;;;;6.10;4.30;;;29.00;57.60;;;;;;5087015;28;20037;-73
2022/08/30 10:22:29;;;;;;;6.70;4.90;;;29.00;57.60;;;;;;5069876;28;20041;-73
2022/08/30 10:25:11;;;;;;;5.25;4.45;;;29.00;57.60;;;;;;5049726;28;20055;-73
2022/08/30 10:27:56;;;;;;;7.30;4.63;;;29.00;57.60;;;;;;5049807;28;20390;-73
2022/08/30 10:30:22;;;;;;;6.20;4.75;;;29.00;57.60;;;;;;5049915;28;20100;-73
2022/08/30 10:33:02;;;;;;;5.43;4.22;;;28.90;57.00;;;;;;5049594;28;20147;-73
2022/08/30 10:35:35;;;;;;;7.50;4.97;;;29.10;57.60;;;;;;5049690;28;20035;-72
2022/08/30 10:38:04;;;;;;;10.43;4.22;;;28.80;57.10;;;;;;5049539;28;20485;-73
2022/08/30 10:43:30;;;;;;;5.18;4.22;;;29.10;57.70;;;;;;5049558;28;20391;-73
2022/08/30 10:46:02;;;;;;;6.13;4.38;;;28.90;57.10;;;;;;5049434;28;20811;-72
2022/08/30 10:48:42;;;;;;;6.45;4.57;;;28.90;57.20;;;;;;5033279;28;20468;-72
2022/08/30 10:51:19;;;;;;;4.93;4.03;;;28.90;57.20;;;;;;5049287;28;20098;-73
2022/08/30 10:53:55;;;;;;;5.28;4.38;;;28.90;57.20;;;;;;5049535;28;20128;-73
2022/08/30 10:56:25;;;;;;;5.53;4.15;;;28.90;57.20;;;;;;5032660;28;20452;-72
2022/08/30 10:58:53;;;;;;;6.32;4.35;;;28.90;57.20;;;;;;5049348;28;20029;-73
2022/08/30 11:01:49;;;;;;;6.38;3.88;;;28.80;57.20;;;;;;5055393;28;20072;-72
2022/08/30 11:04:33;;;;;;;4.15;3.47;;;28.90;57.30;;;;;;5071830;28;20040;-73
2022/08/30 11:07:03;;;;;;;4.55;3.78;;;28.70;57.30;;;;;;5071913;28;20033;-72
2022/08/30 11:09:48;;;;;;;4.13;3.72;;;28.80;57.30;;;;;;5071963;28;20025;-72
2022/08/30 11:12:40;;;;;;;6.22;4.10;;;28.80;57.30;;;;;;5071867;28;20071;-72
2022/08/30 11:15:19;;;;;;;4.75;3.53;;;28.70;57.40;;;;;;5071720;28;20029;-72
2022/08/30 11:18:01;;;;;;;4.30;3.30;;;28.80;57.50;;;;;;5071698;28;20036;-72
2022/08/30 11:20:36;;;;;;;6.63;4.05;;;28.80;57.50;;;;;;5072017;28;20089;-72
2022/08/30 11:23:17;;;;;;;6.18;3.78;;;28.80;57.50;;;;;;5071376;28;20055;-73
2022/08/30 11:25:58;;;;;;;5.00;4.15;;;28.90;57.50;;;;;;5070212;28;20444;-73
2022/08/30 11:28:36;;;;;;;5.45;4.68;;;29.00;58.00;;;;;;5072569;28;20028;-73
2022/08/30 11:31:10;;;;;;;4.35;3.42;;;28.90;57.50;;;;;;5075627;28;20054;-73
2022/08/30 11:33:43;;;;;;;8.02;3.78;;;28.90;57.40;;;;;;5075074;28;20432;-73
2022/08/30 11:36:34;;;;;;;7.03;4.40;;;28.90;57.50;;;;;;5075453;28;20376;-72
2022/08/30 11:39:06;;;;;;;6.53;3.72;;;29.10;58.00;;;;;;5052740;28;20044;-72
2022/08/30 11:41:46;;;;;;;7.00;4.18;;;28.90;57.40;;;;;;5036045;28;20144;-73
2022/08/30 11:44:33;;;;;;;5.38;3.80;;;29.00;57.90;;;;;;5036325;28;20237;-73
2022/08/30 11:47:38;;;;;;;5.70;3.80;;;29.00;58.00;;;;;;5036218;28;20021;-73
2022/08/30 11:50:18;;;;;;;4.07;3.67;;;29.10;57.90;;;;;;5036056;28;20515;-73
2022/08/30 11:53:02;;;;;;;8.07;4.32;;;29.10;57.90;;;;;;5052690;28;20033;-72
2022/08/30 11:55:43;;;;;;;5.22;3.88;;;29.10;57.80;;;;;;5052734;28;20049;-73
2022/08/30 11:58:33;;;;;;;4.97;3.83;;;29.10;57.90;;;;;;5052800;28;20405;-73
2022/08/30 12:01:26;;;;;;;4.22;3.70;;;29.20;57.80;;;;;;5052349;28;20465;-73
2022/08/30 12:04:12;;;;;;;5.10;4.07;;;29.10;57.80;;;;;;5052378;28;20479;-73
2022/08/30 12:06:40;;;;;;;6.00;3.65;;;29.10;57.80;;;;;;5052605;28;20532;-73
2022/08/30 12:09:35;;;;;;;4.45;3.70;;;29.30;57.80;;;;;;5052528;28;20075;-73
2022/08/30 12:12:06;;;;;;;4.68;3.85;;;29.10;57.70;;;;;;5019118;28;20033;-73
2022/08/30 12:14:43;;;;;;;5.03;3.85;;;29.20;57.70;;;;;;5052346;28;20048;-73
2022/08/30 12:20:46;;;;;;;8.30;3.97;;;29.20;57.60;;;;;;5074530;28;20113;-73
2022/08/30 12:23:22;;;;;;;6.57;3.88;;;29.20;57.60;;;;;;5074424;28;20034;-72
2022/08/30 12:25:49;;;;;;;6.20;4.72;;;29.30;57.60;;;;;;5074459;28;20043;-73
2022/08/30 12:28:24;;;;;;;4.57;3.42;;;29.30;57.50;;;;;;5074586;28;20032;-73
2022/08/30 12:30:52;;;;;;;9.32;3.72;;;29.20;57.50;;;;;;5074500;28;20439;-73
2022/08/30 12:33:31;;;;;;;5.90;4.00;;;29.30;57.50;;;;;;5072020;28;20036;-73
2022/08/30 12:35:58;;;;;;;5.38;3.78;;;29.30;57.50;;;;;;5074388;28;20115;-73
2022/08/30 12:38:25;;;;;;;5.95;3.97;;;29.30;57.40;;;;;;5074376;28;20028;-73
2022/08/30 12:40:55;;;;;;;7.95;4.10;;;29.30;57.40;;;;;;5073709;28;20028;-73
2022/08/30 12:43:49;;;;;;;5.97;4.15;;;29.30;57.40;;;;;;5074189;28;20082;-73
2022/08/30 12:46:18;;;;;;;4.22;3.83;;;29.30;57.30;;;;;;5052011;28;20072;-73
2022/08/30 12:48:45;;;;;;;5.00;3.90;;;29.30;57.30;;;;;;5051801;28;20033;-73
2022/08/30 12:51:39;;;;;;;4.65;4.18;;;29.30;57.30;;;;;;5051815;28;20067;-73
2022/08/30 12:54:26;;;;;;;6.55;4.45;;;29.40;57.20;;;;;;5051328;28;20147;-73
2022/08/30 12:57:00;;;;;;;6.80;3.70;;;29.30;57.20;;;;;;5051577;28;20053;-72
2022/08/30 12:59:38;;;;;;;5.20;4.25;;;29.40;57.20;;;;;;5011537;28;20383;-73
2022/08/30 13:02:18;;;;;;;5.47;3.67;;;29.30;57.20;;;;;;5011292;28;20406;-73
2022/08/30 13:04:46;;;;;;;8.77;3.90;;;29.40;57.20;;;;;;5011862;28;20053;-73
2022/08/30 13:07:33;;;;;;;4.97;3.70;;;29.40;57.20;;;;;;5011880;28;20065;-73
2022/08/30 13:10:18;;;;;;;5.53;4.45;;;29.40;57.20;;;;;;5011608;28;20042;-73
2022/08/30 13:13:02;;;;;;;4.70;4.00;;;29.40;57.20;;;;;;5011402;28;20054;-73
2022/08/30 13:15:32;;;;;;;9.10;5.28;;;29.40;57.20;;;;;;5011462;28;20111;-73
2022/08/30 13:18:17;;;;;;;4.32;3.95;;;29.30;57.20;;;;;;5011188;28;20068;-73